Canal Winchester, OH (43110)

3:37 PM EST on March 04, 2015 (GMT -0500)
KOHCANAL6 | Change Station
CLOSE
Current Station
Personal Weather Station
Location: Canal Winchester, OH
Elevation: 748 ft
Nearby Weather Stations
Active Advisory: Winter Weather Advisory

Elev 748 ft 39.83 °N, 82.81 °W | Updated 5 seconds ago

Overcast
Overcast
36.6 °F
Feels Like 37 °F
N
3.0
Wind Variable Wind from West
Gusts 3.0 mph

Today
High -- | Low -- °F
--% Chance of Precip.
Yesterday
High -- | Low -- °F
Precip. -- in
7:00 AM 6:26 PM
Waxing Gibbous, 99% visible
Pressure 29.97 in
Visibility 7.0 miles
Clouds Overcast 1500 ft
Windchill 37 °F
Dew Point 33 °F
Humidity 86%
Rainfall 0.53 in
Snow Depth Not available.
UV 1 out of 12
Pollen .60 out of 12
Air Quality Not available.
Flu Activity Not available.
METAR KLCK 042015Z AUTO 32006KT 7SM OVC015 01/M01 A2997 RMK AO2 T00111010

More Conditions Fewer Conditions

Pressure 29.97 in
Visibility 7.0 miles
Clouds Overcast 1500 ft
Windchill 37 °F
Dew Point 33 °F
Humidity 86%
Rainfall 0.53 in
Snow Depth Not available.
UV 1 out of 12
Pollen .60 out of 12
Air Quality Not available.
Flu Activity Not available.
METAR KLCK 042015Z AUTO 32006KT 7SM OVC015 01/M01 A2997 RMK AO2 T00111010

More Conditions Fewer Conditions

10-Day Weather Forecast

Almanac

Astronomy

Mar. 04, 2015 Rise Set
Actual Time
Civil Twilight
Nautical Twilight
Astronomical Twilight
Moon
Length of Visible Light
Length of Day
Tomorrow will be .
, % of the Moon is Illuminated

Today's Extremes

State Highs State Lows

Community

WunderPhotos

Upload Photos

1,802,575 photos uploaded!

WunderBlogs® & News

Nearby

Air Quality

  Air Quality AQ Index Pollutant
Not available.

Snow Depth

Station Depth Elevation

Earthquake Activity

City Distance Mag. Time & Date
Minimum magnitude displayed is 2.5.

Coastal Water Temperatures

Place Temperature

Nearby Weather Stations

Winter Weather Advisory
Statement as of 11:26 AM EST on March 04, 2015

... Winter Weather Advisory remains in effect until 1 PM EST
Thursday...

* hazard types... snow.

* Accumulations... snow accumulation 1 to 3 inches.

* Timing... snow mixed with sleet will transition to snow early
this afternoon. The snow will then increase in intensity late
this afternoon into this evening. The snow will remain across
the area tonight before diminishing Thursday morning.

* Impacts... travel difficulties are expected due to reduced
visibilities and snow accumulations.

Precautionary/preparedness actions...

Remember... a Winter Weather Advisory for snow means that periods
of snow will cause primarily travel difficulties. Be prepared for
snow covered roads and limited visibilities... and use caution
while driving. Stay tuned to NOAA Weather Radio or your favorite
source of information for the latest updates. Additional details
can also be found at www.Weather.Gov/iln... as well as on our
facebook and twitter pages.